Time;durP1;ratioP1;P1;durP2;ratioP2;P2;SDS_P1;SDS_P2;PMS_P1;PMS_P2;Temp;Humidity;BMP_temperature;BMP_pressure;BME280_temperature;BME280_humidity;BME280_pressure;Samples;Min_cycle;Max_cycle;Signal;HPM_P1;HPM_P2
2022/01/30 00:02:18;;;;;;;0.80;0.80;;;;;;;;;;5072939;28;20786;-68
2022/01/30 00:04:44;;;;;;;1.33;1.07;;;;;;;;;;5073195;28;20459;-66
2022/01/30 00:07:10;;;;;;;0.80;0.80;;;;;;;;;;5073026;28;20393;-67
2022/01/30 00:09:36;;;;;;;1.97;0.70;;;;;;;;;;5073015;28;20447;-67
2022/01/30 00:12:04;;;;;;;0.80;0.80;;;;;;;;;;5073121;28;20796;-67
2022/01/30 00:14:34;;;;;;;1.00;0.90;;;;;;;;;;5073047;28;20838;-67
2022/01/30 00:17:10;;;;;;;1.30;0.90;;;;;;;;;;5073039;28;20462;-67
2022/01/30 00:22:33;;;;;;;0.90;0.90;;;;;;;;;;5072925;28;20410;-67
2022/01/30 00:25:05;;;;;;;2.50;0.93;;;;;;;;;;5073074;28;20404;-67
2022/01/30 00:27:46;;;;;;;1.27;0.80;;;;;;;;;;5073060;28;20429;-67
2022/01/30 00:30:14;;;;;;;0.80;0.80;;;;;;;;;;5072901;28;20432;-67
2022/01/30 00:32:40;;;;;;;0.87;0.87;;;;;;;;;;5072829;28;20405;-68
2022/01/30 00:35:08;;;;;;;0.70;0.70;;;;;;;;;;5072700;28;20395;-68
2022/01/30 00:37:39;;;;;;;0.80;0.80;;;;;;;;;;5072742;28;20421;-67
2022/01/30 00:40:06;;;;;;;1.27;0.90;;;;;;;;;;5072664;28;21061;-67
2022/01/30 00:42:32;;;;;;;1.80;1.10;;;;;;;;;;5072838;28;20516;-67
2022/01/30 00:44:58;;;;;;;1.23;1.13;;;;;;;;;;5072713;28;20448;-67
2022/01/30 00:47:24;;;;;;;1.63;1.00;;;;;;;;;;5072661;28;20475;-67
2022/01/30 00:49:50;;;;;;;0.80;0.80;;;;;;;;;;5072622;28;20979;-67
2022/01/30 00:52:17;;;;;;;0.80;0.80;;;;;;;;;;5072743;28;20393;-70
2022/01/30 00:54:43;;;;;;;0.83;0.77;;;;;;;;;;5054599;28;20409;-68
2022/01/30 00:57:10;;;;;;;0.90;0.90;;;;;;;;;;5054667;28;20405;-67
2022/01/30 00:59:36;;;;;;;0.70;0.70;;;;;;;;;;5072445;28;20496;-67
2022/01/30 01:02:02;;;;;;;1.07;0.97;;;;;;;;;;5072518;28;20465;-67
2022/01/30 01:04:28;;;;;;;0.93;0.90;;;;;;;;;;5072456;28;20950;-66
2022/01/30 01:06:54;;;;;;;1.00;0.90;;;;;;;;;;5072447;28;20489;-68
2022/01/30 01:09:25;;;;;;;0.93;0.90;;;;;;;;;;5072364;28;20539;-67
2022/01/30 01:12:29;;;;;;;0.70;0.70;;;;;;;;;;5055196;28;20401;-67
2022/01/30 01:25:50;;;;;;;1.17;1.07;;;;;;;;;;5075910;28;20757;-67
2022/01/30 01:28:16;;;;;;;0.80;0.80;;;;;;;;;;5075807;28;20396;-67
2022/01/30 01:30:42;;;;;;;0.90;0.90;;;;;;;;;;5075715;28;20411;-67
2022/01/30 01:33:08;;;;;;;1.30;1.20;;;;;;;;;;5057686;28;20873;-67
2022/01/30 01:35:34;;;;;;;0.80;0.80;;;;;;;;;;5075591;28;20421;-66
2022/01/30 01:38:00;;;;;;;1.00;1.00;;;;;;;;;;5075476;28;20409;-69
2022/01/30 01:40:26;;;;;;;2.30;0.90;;;;;;;;;;5075548;28;20483;-68
2022/01/30 01:42:54;;;;;;;0.73;0.73;;;;;;;;;;5075545;28;20400;-68
2022/01/30 01:45:23;;;;;;;2.60;1.00;;;;;;;;;;5075518;28;20946;-68
2022/01/30 01:47:49;;;;;;;0.83;0.83;;;;;;;;;;5075499;28;20757;-69
2022/01/30 01:50:37;;;;;;;1.77;1.17;;;;;;;;;;5075367;28;20407;-66
2022/01/30 01:53:04;;;;;;;1.63;1.10;;;;;;;;;;5075424;28;20400;-69
2022/01/30 01:55:30;;;;;;;2.00;1.07;;;;;;;;;;5075070;28;20415;-67
2022/01/30 01:57:56;;;;;;;1.13;1.03;;;;;;;;;;5075183;28;20420;-68
2022/01/30 02:00:22;;;;;;;1.13;1.00;;;;;;;;;;5057131;28;20862;-68
2022/01/30 02:02:48;;;;;;;1.10;1.00;;;;;;;;;;5075034;28;20456;-68
2022/01/30 02:05:14;;;;;;;3.63;1.20;;;;;;;;;;5075153;28;20416;-68
2022/01/30 02:10:35;;;;;;;1.37;1.10;;;;;;;;;;5075080;28;20407;-69
2022/01/30 02:13:32;;;;;;;1.03;0.83;;;;;;;;;;5075038;28;20394;-69
2022/01/30 02:24:07;;;;;;;1.07;0.90;;;;;;;;;;5075054;28;20807;-67
2022/01/30 02:26:40;;;;;;;1.00;1.00;;;;;;;;;;5074718;28;20413;-69
2022/01/30 02:29:06;;;;;;;1.07;0.80;;;;;;;;;;5074582;28;20801;-68
2022/01/30 02:31:35;;;;;;;1.33;0.97;;;;;;;;;;5056727;28;20954;-69
2022/01/30 02:34:01;;;;;;;0.80;0.80;;;;;;;;;;5056250;28;20438;-68
2022/01/30 02:36:27;;;;;;;0.70;0.70;;;;;;;;;;5074667;28;20446;-68
2022/01/30 02:38:57;;;;;;;0.90;0.90;;;;;;;;;;5074483;28;20432;-68
2022/01/30 02:41:23;;;;;;;1.00;1.00;;;;;;;;;;5074495;28;20420;-69
2022/01/30 02:44:05;;;;;;;0.83;0.83;;;;;;;;;;5074423;28;20883;-69
2022/01/30 02:46:34;;;;;;;2.60;1.20;;;;;;;;;;5074359;28;20396;-69
2022/01/30 02:49:12;;;;;;;0.93;0.70;;;;;;;;;;5074201;28;20472;-68
2022/01/30 02:51:49;;;;;;;1.80;1.13;;;;;;;;;;5074290;28;20386;-68
2022/01/30 02:54:15;;;;;;;1.37;1.27;;;;;;;;;;5074063;28;20447;-68
2022/01/30 02:56:42;;;;;;;5.00;1.50;;;;;;;;;;5074008;28;20389;-68
2022/01/30 02:59:08;;;;;;;2.30;1.17;;;;;;;;;;5073966;28;20754;-69
2022/01/30 03:01:34;;;;;;;2.87;1.40;;;;;;;;;;5073745;28;20457;-68
2022/01/30 03:04:00;;;;;;;1.73;1.50;;;;;;;;;;5056067;28;20417;-68
2022/01/30 03:06:27;;;;;;;1.57;1.30;;;;;;;;;;5073934;28;20415;-68
2022/01/30 03:08:53;;;;;;;1.93;1.40;;;;;;;;;;5073896;28;20896;-68
2022/01/30 03:11:19;;;;;;;5.73;1.70;;;;;;;;;;5055934;28;20424;-73
2022/01/30 03:13:45;;;;;;;1.73;1.53;;;;;;;;;;5073704;28;20782;-68
2022/01/30 03:16:11;;;;;;;2.93;1.00;;;;;;;;;;5073701;28;20403;-68
2022/01/30 03:18:37;;;;;;;1.33;1.23;;;;;;;;;;5055721;28;20925;-69
2022/01/30 03:21:04;;;;;;;1.47;1.37;;;;;;;;;;5073471;28;20469;-68
2022/01/30 03:23:30;;;;;;;2.50;1.80;;;;;;;;;;5073572;28;20484;-69
2022/01/30 03:25:59;;;;;;;1.67;1.20;;;;;;;;;;5055572;28;20415;-68
2022/01/30 03:28:25;;;;;;;2.37;1.10;;;;;;;;;;5073559;28;20941;-71
2022/01/30 03:30:55;;;;;;;1.60;1.30;;;;;;;;;;5073477;28;20891;-68
2022/01/30 03:33:22;;;;;;;2.23;1.03;;;;;;;;;;5073434;28;20389;-69
2022/01/30 03:35:48;;;;;;;3.30;1.30;;;;;;;;;;5073046;28;20492;-71
2022/01/30 03:38:14;;;;;;;2.50;1.23;;;;;;;;;;5073284;28;20506;-69
2022/01/30 03:40:43;;;;;;;1.77;0.80;;;;;;;;;;5073307;28;20530;-68
2022/01/30 03:43:09;;;;;;;1.10;1.00;;;;;;;;;;5055406;28;20412;-69
2022/01/30 03:45:35;;;;;;;1.20;1.10;;;;;;;;;;5073398;28;20417;-68
2022/01/30 03:48:01;;;;;;;1.30;1.20;;;;;;;;;;5055273;28;20431;-68
2022/01/30 03:50:28;;;;;;;2.17;1.10;;;;;;;;;;5073260;28;20413;-68
2022/01/30 03:52:57;;;;;;;1.23;1.13;;;;;;;;;;5073110;28;20503;-68
2022/01/30 03:55:24;;;;;;;1.93;1.10;;;;;;;;;;5073208;28;20808;-68
2022/01/30 03:57:50;;;;;;;1.43;1.07;;;;;;;;;;5073141;28;20416;-68
2022/01/30 04:00:16;;;;;;;2.30;1.33;;;;;;;;;;5073170;28;20530;-67
2022/01/30 04:02:42;;;;;;;1.73;1.10;;;;;;;;;;5073021;28;20506;-69
2022/01/30 04:05:08;;;;;;;3.40;1.37;;;;;;;;;;5073169;28;20903;-71
2022/01/30 04:07:35;;;;;;;1.47;1.30;;;;;;;;;;5072968;28;20404;-69
2022/01/30 04:10:01;;;;;;;2.67;1.40;;;;;;;;;;5073048;28;20468;-71
2022/01/30 04:12:28;;;;;;;1.37;1.27;;;;;;;;;;5073011;28;20412;-68
2022/01/30 04:14:54;;;;;;;2.13;1.57;;;;;;;;;;5072989;28;20409;-68
2022/01/30 04:17:20;;;;;;;3.27;1.70;;;;;;;;;;5073041;28;20434;-68
2022/01/30 04:19:47;;;;;;;4.10;1.73;;;;;;;;;;5054878;28;20465;-68
2022/01/30 04:22:13;;;;;;;3.13;1.90;;;;;;;;;;5072916;28;20821;-68
2022/01/30 04:24:39;;;;;;;2.13;1.93;;;;;;;;;;5072956;28;20434;-67
2022/01/30 04:27:05;;;;;;;4.70;1.77;;;;;;;;;;5072858;28;20912;-68
2022/01/30 04:29:31;;;;;;;4.10;2.33;;;;;;;;;;5072739;28;20891;-68
2022/01/30 04:31:57;;;;;;;4.37;2.57;;;;;;;;;;5072778;28;20810;-68
2022/01/30 04:34:25;;;;;;;4.47;2.10;;;;;;;;;;5072694;28;20799;-68
2022/01/30 04:37:04;;;;;;;3.73;2.20;;;;;;;;;;5072722;28;20451;-68
2022/01/30 04:40:15;;;;;;;3.63;2.40;;;;;;;;;;5072713;28;20878;-67
2022/01/30 04:51:59;;;;;;;6.77;2.77;;;;;;;;;;5071875;28;20448;-68
2022/01/30 04:53:37;;;;;;;4.83;3.10;;;;;;;;;;5076514;28;20454;-67
2022/01/30 05:03:35;;;;;;;5.63;2.87;;;;;;;;;;5076010;28;20446;-68
2022/01/30 05:06:05;;;;;;;7.57;3.67;;;;;;;;;;5076267;28;20432;-68
2022/01/30 05:08:32;;;;;;;4.47;2.50;;;;;;;;;;5076043;28;20820;-69
2022/01/30 05:10:58;;;;;;;3.63;2.67;;;;;;;;;;5058152;28;20408;-68
2022/01/30 05:13:28;;;;;;;4.60;2.20;;;;;;;;;;5075897;28;20410;-68
2022/01/30 05:15:55;;;;;;;6.73;2.90;;;;;;;;;;5076028;28;20432;-68
2022/01/30 05:18:22;;;;;;;6.40;3.07;;;;;;;;;;5075914;28;20452;-68
2022/01/30 05:20:48;;;;;;;3.40;2.00;;;;;;;;;;5057778;28;20571;-68
2022/01/30 05:23:16;;;;;;;4.90;2.90;;;;;;;;;;5075881;28;20412;-70
2022/01/30 05:25:43;;;;;;;8.57;3.10;;;;;;;;;;5075945;28;20412;-71
2022/01/30 05:28:09;;;;;;;4.17;2.70;;;;;;;;;;5075710;28;20443;-72
2022/01/30 05:30:36;;;;;;;9.77;3.33;;;;;;;;;;5075779;28;20491;-68
2022/01/30 05:33:02;;;;;;;4.40;2.40;;;;;;;;;;5057581;28;20419;-69
2022/01/30 05:35:28;;;;;;;8.93;3.20;;;;;;;;;;5075729;28;20452;-68
2022/01/30 05:37:55;;;;;;;5.17;2.90;;;;;;;;;;5075510;28;20867;-68
2022/01/30 05:40:22;;;;;;;7.57;3.07;;;;;;;;;;5057545;28;20508;-68
2022/01/30 05:42:48;;;;;;;5.53;3.00;;;;;;;;;;5075462;28;20409;-68
2022/01/30 05:45:26;;;;;;;9.17;3.30;;;;;;;;;;5075418;28;20461;-69
2022/01/30 05:47:58;;;;;;;14.23;3.87;;;;;;;;;;5075404;28;20484;-68
2022/01/30 05:50:24;;;;;;;9.10;3.27;;;;;;;;;;5075460;28;20822;-68
2022/01/30 05:52:50;;;;;;;7.77;3.07;;;;;;;;;;5075263;28;20411;-69
2022/01/30 05:55:16;;;;;;;5.60;3.17;;;;;;;;;;5075328;28;20876;-68
2022/01/30 05:57:42;;;;;;;12.63;3.60;;;;;;;;;;5074827;28;20438;-71
2022/01/30 06:00:13;;;;;;;7.20;3.43;;;;;;;;;;5075250;28;20459;-71
2022/01/30 06:02:39;;;;;;;11.20;3.20;;;;;;;;;;5075037;28;20542;-70
2022/01/30 06:05:07;;;;;;;7.47;2.90;;;;;;;;;;5057229;28;20431;-70
2022/01/30 06:07:33;;;;;;;6.20;3.43;;;;;;;;;;5074964;28;20423;-71
2022/01/30 06:09:59;;;;;;;5.70;3.20;;;;;;;;;;5057126;28;20416;-71
2022/01/30 06:12:25;;;;;;;11.30;4.10;;;;;;;;;;5074925;28;20404;-69
2022/01/30 06:14:51;;;;;;;9.90;3.17;;;;;;;;;;5074870;28;20509;-71
2022/01/30 06:17:17;;;;;;;5.13;2.93;;;;;;;;;;5056968;28;20412;-69
2022/01/30 06:19:43;;;;;;;9.67;3.83;;;;;;;;;;5074669;28;20460;-70
2022/01/30 06:22:09;;;;;;;7.10;2.70;;;;;;;;;;5056782;28;20548;-68
2022/01/30 06:24:35;;;;;;;4.40;2.67;;;;;;;;;;5056738;28;20958;-70
2022/01/30 06:27:01;;;;;;;7.87;3.13;;;;;;;;;;5074751;28;20407;-70
2022/01/30 06:29:27;;;;;;;7.13;4.10;;;;;;;;;;5074737;28;20401;-68
2022/01/30 06:31:53;;;;;;;7.63;2.87;;;;;;;;;;5074567;28;20409;-68
2022/01/30 06:34:20;;;;;;;7.93;2.63;;;;;;;;;;5074472;28;20407;-68
2022/01/30 06:36:46;;;;;;;9.13;4.47;;;;;;;;;;5074562;28;20428;-68
2022/01/30 06:39:12;;;;;;;10.03;3.30;;;;;;;;;;5074212;28;20397;-68
2022/01/30 06:41:38;;;;;;;4.53;2.23;;;;;;;;;;5074344;28;20889;-68
2022/01/30 06:44:06;;;;;;;9.30;2.80;;;;;;;;;;5074342;28;20417;-68
2022/01/30 06:46:32;;;;;;;9.40;2.80;;;;;;;;;;5074397;28;20401;-69
2022/01/30 06:48:58;;;;;;;7.13;2.83;;;;;;;;;;5074174;28;20412;-68
2022/01/30 06:51:24;;;;;;;4.17;2.60;;;;;;;;;;5056127;28;21038;-69
2022/01/30 06:53:50;;;;;;;5.57;2.60;;;;;;;;;;5074092;28;20455;-69
2022/01/30 06:56:16;;;;;;;9.47;3.43;;;;;;;;;;5074213;28;20409;-69
2022/01/30 06:58:42;;;;;;;7.40;3.00;;;;;;;;;;5056024;28;20500;-70
2022/01/30 07:01:10;;;;;;;10.50;3.57;;;;;;;;;;5073940;28;20479;-71
2022/01/30 07:03:36;;;;;;;4.23;2.23;;;;;;;;;;5074077;28;20402;-72
2022/01/30 07:06:02;;;;;;;8.80;3.00;;;;;;;;;;5056099;28;20421;-71
2022/01/30 07:08:28;;;;;;;7.60;3.23;;;;;;;;;;5073808;28;20404;-68
2022/01/30 07:10:54;;;;;;;8.87;3.03;;;;;;;;;;5055093;28;20838;-71
2022/01/30 07:13:20;;;;;;;5.70;3.10;;;;;;;;;;5073672;28;20471;-69
2022/01/30 07:15:46;;;;;;;6.27;3.47;;;;;;;;;;5073792;28;20441;-69
2022/01/30 07:18:12;;;;;;;8.47;2.70;;;;;;;;;;5073700;28;20864;-70
2022/01/30 07:20:38;;;;;;;7.87;2.80;;;;;;;;;;5073604;28;20868;-69
2022/01/30 07:23:04;;;;;;;6.33;2.87;;;;;;;;;;5073734;28;20396;-71
2022/01/30 07:25:30;;;;;;;9.27;3.33;;;;;;;;;;5073577;28;20455;-70
2022/01/30 07:27:56;;;;;;;9.00;3.13;;;;;;;;;;5073466;28;20405;-67
2022/01/30 07:30:22;;;;;;;11.23;3.13;;;;;;;;;;5073559;28;20873;-68
2022/01/30 07:32:48;;;;;;;7.53;3.10;;;;;;;;;;5073417;28;20425;-68
2022/01/30 07:35:14;;;;;;;7.80;3.07;;;;;;;;;;5073430;28;20509;-71
2022/01/30 07:37:40;;;;;;;7.37;3.50;;;;;;;;;;5073333;28;20403;-68
2022/01/30 07:40:07;;;;;;;5.87;3.17;;;;;;;;;;5073218;28;20935;-69
2022/01/30 07:42:34;;;;;;;8.83;3.80;;;;;;;;;;5055450;28;20492;-67
2022/01/30 07:45:00;;;;;;;9.73;3.33;;;;;;;;;;5073233;28;20394;-68
2022/01/30 07:47:26;;;;;;;9.73;4.10;;;;;;;;;;5073117;28;20407;-68
2022/01/30 07:49:52;;;;;;;9.67;3.63;;;;;;;;;;5073300;28;20425;-71
2022/01/30 07:52:19;;;;;;;6.17;3.60;;;;;;;;;;5073236;28;20403;-72
2022/01/30 07:54:45;;;;;;;7.23;3.57;;;;;;;;;;5073123;28;20435;-71
2022/01/30 07:57:11;;;;;;;6.73;3.63;;;;;;;;;;5072984;28;20408;-71
2022/01/30 07:59:37;;;;;;;7.80;3.10;;;;;;;;;;5073095;28;20980;-71
2022/01/30 08:02:03;;;;;;;10.63;4.63;;;;;;;;;;5068727;28;20461;-71
2022/01/30 08:04:29;;;;;;;9.60;3.20;;;;;;;;;;5093306;28;20454;-71
2022/01/30 08:06:55;;;;;;;9.70;3.63;;;;;;;;;;5093341;28;20406;-74
2022/01/30 08:09:21;;;;;;;8.10;3.50;;;;;;;;;;5093311;28;20412;-72
2022/01/30 08:11:47;;;;;;;5.93;3.30;;;;;;;;;;5093218;28;20760;-71
2022/01/30 08:14:13;;;;;;;3.80;2.80;;;;;;;;;;5091938;28;20415;-72
2022/01/30 08:16:40;;;;;;;7.90;3.10;;;;;;;;;;5093165;28;20441;-67
2022/01/30 08:19:06;;;;;;;9.77;3.10;;;;;;;;;;5093110;28;20449;-71
2022/01/30 08:21:32;;;;;;;6.40;3.20;;;;;;;;;;5093636;28;21004;-68
2022/01/30 08:23:58;;;;;;;8.50;3.40;;;;;;;;;;5097327;28;20493;-70
2022/01/30 08:26:24;;;;;;;6.40;3.37;;;;;;;;;;5096113;28;20413;-70
2022/01/30 08:28:50;;;;;;;6.07;2.80;;;;;;;;;;5097239;28;20411;-69
2022/01/30 08:31:16;;;;;;;8.10;3.73;;;;;;;;;;5095856;28;20980;-68
2022/01/30 08:33:42;;;;;;;8.60;3.90;;;;;;;;;;5097033;28;20923;-70
2022/01/30 08:36:08;;;;;;;6.87;3.07;;;;;;;;;;5097208;28;20404;-68
2022/01/30 08:38:34;;;;;;;12.33;3.50;;;;;;;;;;5097097;28;20510;-68
2022/01/30 08:41:00;;;;;;;8.80;3.20;;;;;;;;;;5096981;28;20475;-68
2022/01/30 08:43:26;;;;;;;4.87;2.73;;;;;;;;;;5096986;28;20510;-69
2022/01/30 08:45:53;;;;;;;6.20;3.20;;;;;;;;;;5095809;28;20400;-70
2022/01/30 08:48:20;;;;;;;5.77;2.83;;;;;;;;;;5096848;28;20484;-74
2022/01/30 08:50:46;;;;;;;6.23;3.00;;;;;;;;;;5096802;28;20404;-72
2022/01/30 08:53:12;;;;;;;7.40;3.17;;;;;;;;;;5096642;28;20388;-71
2022/01/30 08:55:38;;;;;;;8.77;3.00;;;;;;;;;;5095486;28;20492;-70
2022/01/30 08:58:08;;;;;;;8.37;3.00;;;;;;;;;;5096662;28;20411;-69
2022/01/30 09:00:38;;;;;;;10.13;3.50;;;;;;;;;;5096502;28;20870;-70
2022/01/30 09:03:04;;;;;;;7.70;2.90;;;;;;;;;;5079385;28;20513;-71
2022/01/30 09:05:31;;;;;;;7.83;3.47;;;;;;;;;;5076210;28;20404;-67
2022/01/30 09:08:04;;;;;;;6.57;2.97;;;;;;;;;;5076168;28;20404;-70
2022/01/30 09:10:30;;;;;;;7.23;2.67;;;;;;;;;;5076154;28;20441;-67
2022/01/30 09:12:56;;;;;;;6.53;3.00;;;;;;;;;;5076000;28;20456;-71
2022/01/30 09:15:22;;;;;;;11.50;3.40;;;;;;;;;;5076045;28;20966;-69
2022/01/30 09:17:48;;;;;;;12.40;3.57;;;;;;;;;;5075932;28;20405;-70
2022/01/30 09:20:14;;;;;;;4.53;3.00;;;;;;;;;;5075834;28;21012;-69
2022/01/30 09:22:40;;;;;;;8.57;2.83;;;;;;;;;;5075895;28;20421;-70
2022/01/30 09:25:07;;;;;;;11.90;4.40;;;;;;;;;;5075912;28;20413;-71
2022/01/30 09:27:33;;;;;;;8.27;3.00;;;;;;;;;;5075836;28;20433;-72
2022/01/30 09:29:59;;;;;;;10.43;3.43;;;;;;;;;;5075708;28;20856;-67
2022/01/30 09:32:25;;;;;;;7.30;3.13;;;;;;;;;;5075084;28;20418;-67
2022/01/30 09:34:51;;;;;;;8.60;3.53;;;;;;;;;;5075587;28;20410;-68
2022/01/30 09:37:17;;;;;;;5.73;2.70;;;;;;;;;;5057676;28;20416;-67
2022/01/30 09:39:44;;;;;;;6.30;3.13;;;;;;;;;;5075609;28;20457;-68
2022/01/30 09:42:10;;;;;;;9.07;3.60;;;;;;;;;;5075536;28;20497;-68
2022/01/30 09:44:39;;;;;;;10.87;3.23;;;;;;;;;;5075507;28;20475;-70
2022/01/30 09:47:16;;;;;;;15.20;4.60;;;;;;;;;;5075356;28;20420;-68
2022/01/30 09:49:48;;;;;;;7.60;2.90;;;;;;;;;;5075529;28;20487;-69
2022/01/30 09:52:14;;;;;;;6.27;2.80;;;;;;;;;;5057402;28;20412;-69
2022/01/30 09:54:40;;;;;;;8.27;3.50;;;;;;;;;;5075188;28;20406;-67
2022/01/30 09:57:06;;;;;;;8.90;3.57;;;;;;;;;;5075199;28;20415;-66
2022/01/30 09:59:32;;;;;;;9.57;3.60;;;;;;;;;;5075061;28;20467;-72
2022/01/30 10:01:58;;;;;;;8.90;3.00;;;;;;;;;;5069338;28;21029;-68
2022/01/30 10:04:24;;;;;;;9.80;3.90;;;;;;;;;;5095436;28;20746;-68
2022/01/30 10:07:04;;;;;;;10.67;4.47;;;;;;;;;;5095360;28;20410;-68
2022/01/30 10:09:33;;;;;;;8.70;3.30;;;;;;;;;;5095374;28;20399;-68
2022/01/30 10:12:16;;;;;;;9.13;3.47;;;;;;;;;;5095267;28;20409;-68
2022/01/30 10:14:48;;;;;;;20.23;3.40;;;;;;;;;;5095192;28;20400;-71
2022/01/30 10:17:24;;;;;;;11.67;4.00;;;;;;;;;;5095070;28;20414;-71
2022/01/30 10:20:01;;;;;;;3.10;2.43;;;;;;;;;;5095004;28;20469;-68
2022/01/30 10:22:27;;;;;;;6.77;3.13;;;;;;;;;;5093847;28;20419;-68
2022/01/30 10:24:53;;;;;;;9.33;3.30;;;;;;;;;;5094964;28;20396;-71
2022/01/30 10:27:19;;;;;;;15.73;3.47;;;;;;;;;;5095062;28;20409;-68
2022/01/30 10:29:45;;;;;;;11.00;2.93;;;;;;;;;;5094968;28;20910;-67
2022/01/30 10:32:11;;;;;;;8.37;3.10;;;;;;;;;;5094902;28;20466;-67
2022/01/30 10:34:38;;;;;;;15.07;3.73;;;;;;;;;;5094671;28;20883;-68
2022/01/30 10:37:12;;;;;;;7.97;3.43;;;;;;;;;;5094683;28;20968;-70
2022/01/30 10:39:53;;;;;;;11.33;2.63;;;;;;;;;;5094565;28;20456;-69
2022/01/30 10:42:38;;;;;;;11.80;2.60;;;;;;;;;;5094695;28;20465;-70
2022/01/30 10:45:05;;;;;;;8.00;2.40;;;;;;;;;;5094435;28;20413;-69
2022/01/30 10:47:32;;;;;;;4.43;2.03;;;;;;;;;;5094552;28;20406;-70
2022/01/30 10:49:59;;;;;;;7.97;2.40;;;;;;;;;;5094521;28;20924;-73
2022/01/30 10:52:25;;;;;;;2.53;2.33;;;;;;;;;;5094415;28;20491;-70
2022/01/30 10:54:51;;;;;;;9.43;2.90;;;;;;;;;;5094346;28;20482;-71
2022/01/30 10:57:17;;;;;;;11.20;2.43;;;;;;;;;;5094248;28;20950;-68
2022/01/30 10:59:52;;;;;;;6.20;2.90;;;;;;;;;;5094359;28;20467;-69
2022/01/30 11:02:19;;;;;;;5.77;2.90;;;;;;;;;;5083548;28;20822;-67
2022/01/30 11:04:47;;;;;;;3.97;2.20;;;;;;;;;;5056149;28;20507;-68
2022/01/30 11:07:19;;;;;;;8.47;2.60;;;;;;;;;;5073895;28;20896;-67
2022/01/30 11:09:56;;;;;;;7.03;2.83;;;;;;;;;;5074021;28;20412;-69
2022/01/30 11:12:31;;;;;;;6.77;2.80;;;;;;;;;;5073869;28;20393;-68
2022/01/30 11:15:15;;;;;;;7.20;2.77;;;;;;;;;;5073894;28;20405;-67
2022/01/30 11:17:43;;;;;;;7.90;3.40;;;;;;;;;;5055826;28;20888;-66
2022/01/30 11:20:10;;;;;;;9.97;3.23;;;;;;;;;;5073678;28;20463;-66
2022/01/30 11:22:38;;;;;;;11.70;3.53;;;;;;;;;;5073593;28;20418;-66
2022/01/30 11:25:05;;;;;;;13.83;3.50;;;;;;;;;;5055577;28;20414;-67
2022/01/30 11:27:32;;;;;;;10.37;2.87;;;;;;;;;;5073534;28;20415;-68
2022/01/30 11:29:59;;;;;;;6.07;2.30;;;;;;;;;;5073544;28;20420;-66
2022/01/30 11:32:27;;;;;;;10.63;3.00;;;;;;;;;;5073480;28;20445;-69
2022/01/30 11:34:53;;;;;;;9.13;3.50;;;;;;;;;;5073411;28;20408;-68
2022/01/30 11:37:20;;;;;;;9.03;2.70;;;;;;;;;;5055469;28;20477;-66
2022/01/30 11:39:48;;;;;;;6.50;2.63;;;;;;;;;;5073339;28;20463;-67
2022/01/30 11:42:27;;;;;;;6.23;2.60;;;;;;;;;;5073297;28;20486;-68
2022/01/30 11:45:09;;;;;;;4.53;2.60;;;;;;;;;;5073315;28;20885;-67
2022/01/30 11:47:46;;;;;;;4.77;2.60;;;;;;;;;;5073143;28;20404;-68
2022/01/30 11:50:12;;;;;;;8.27;2.60;;;;;;;;;;5073235;28;20412;-67
2022/01/30 11:52:52;;;;;;;8.43;2.87;;;;;;;;;;5073195;28;20953;-66
2022/01/30 11:55:36;;;;;;;12.03;3.67;;;;;;;;;;5072887;28;20753;-66
2022/01/30 11:58:02;;;;;;;8.90;3.03;;;;;;;;;;5073107;28;20885;-67
2022/01/30 12:00:36;;;;;;;9.43;3.20;;;;;;;;;;5073067;28;20558;-68
2022/01/30 12:03:20;;;;;;;6.17;2.80;;;;;;;;;;5073072;28;20517;-68
2022/01/30 12:05:46;;;;;;;11.40;3.37;;;;;;;;;;5055249;28;20397;-67
2022/01/30 12:08:31;;;;;;;6.37;2.60;;;;;;;;;;5073102;28;20905;-68
2022/01/30 12:10:57;;;;;;;8.67;2.83;;;;;;;;;;5072879;28;20761;-67
2022/01/30 12:13:43;;;;;;;3.33;2.70;;;;;;;;;;5072871;28;20394;-67
2022/01/30 12:16:29;;;;;;;6.80;3.13;;;;;;;;;;5072997;28;20493;-68
2022/01/30 12:18:55;;;;;;;12.53;2.73;;;;;;;;;;5072746;28;20428;-67
2022/01/30 12:21:26;;;;;;;10.03;3.33;;;;;;;;;;5072885;28;20477;-68
2022/01/30 12:23:52;;;;;;;5.70;2.47;;;;;;;;;;5072999;28;20450;-68
2022/01/30 12:26:19;;;;;;;5.00;2.77;;;;;;;;;;5054907;28;20822;-68
2022/01/30 12:28:49;;;;;;;5.10;3.53;;;;;;;;;;5072813;28;20424;-67
2022/01/30 12:31:34;;;;;;;11.10;2.87;;;;;;;;;;5072928;28;20948;-69
2022/01/30 12:34:07;;;;;;;6.50;2.70;;;;;;;;;;5072738;28;20413;-67
2022/01/30 12:36:43;;;;;;;8.27;2.97;;;;;;;;;;5054737;28;21000;-68
2022/01/30 12:39:15;;;;;;;5.10;2.50;;;;;;;;;;5072805;28;20488;-67
2022/01/30 12:41:41;;;;;;;10.07;3.10;;;;;;;;;;5072746;28;20556;-67
2022/01/30 12:44:08;;;;;;;5.40;2.70;;;;;;;;;;5072744;28;20397;-68
2022/01/30 12:46:48;;;;;;;6.97;2.57;;;;;;;;;;5072696;28;20416;-68
2022/01/30 12:49:17;;;;;;;8.60;2.67;;;;;;;;;;5054742;28;20435;-68
2022/01/30 12:51:47;;;;;;;10.03;3.37;;;;;;;;;;5072695;28;20416;-68
2022/01/30 12:54:14;;;;;;;11.23;2.87;;;;;;;;;;5054580;28;20405;-67
2022/01/30 12:56:41;;;;;;;12.00;3.70;;;;;;;;;;5072595;28;20753;-68
2022/01/30 12:59:07;;;;;;;4.60;2.40;;;;;;;;;;5072656;28;20407;-68
2022/01/30 13:01:37;;;;;;;10.63;2.53;;;;;;;;;;5072292;28;20476;-68
2022/01/30 13:04:04;;;;;;;8.40;3.10;;;;;;;;;;5072672;28;20431;-68
2022/01/30 13:06:41;;;;;;;5.50;2.30;;;;;;;;;;5072472;28;20441;-68
2022/01/30 13:09:07;;;;;;;10.80;3.20;;;;;;;;;;5075021;28;20896;-67
2022/01/30 13:11:33;;;;;;;9.43;3.07;;;;;;;;;;5076184;28;20407;-67
2022/01/30 13:14:09;;;;;;;8.53;2.43;;;;;;;;;;5075919;28;20401;-67
2022/01/30 13:16:40;;;;;;;5.60;2.20;;;;;;;;;;5075995;28;20420;-67
2022/01/30 13:19:08;;;;;;;9.33;2.93;;;;;;;;;;5075924;28;20404;-67
2022/01/30 13:21:34;;;;;;;12.57;3.33;;;;;;;;;;5075775;28;20508;-67
2022/01/30 13:24:01;;;;;;;4.30;2.83;;;;;;;;;;5075961;28;20404;-68
2022/01/30 13:26:28;;;;;;;9.63;3.00;;;;;;;;;;5057955;28;20927;-67
2022/01/30 13:28:54;;;;;;;8.60;2.90;;;;;;;;;;5075861;28;20429;-68
2022/01/30 13:31:20;;;;;;;7.83;2.97;;;;;;;;;;5075840;28;20408;-67
2022/01/30 13:33:46;;;;;;;10.73;3.90;;;;;;;;;;5057630;28;20462;-69
2022/01/30 13:36:24;;;;;;;6.73;2.63;;;;;;;;;;5075639;28;20801;-69
2022/01/30 13:38:50;;;;;;;9.13;2.83;;;;;;;;;;5075633;28;20444;-69
2022/01/30 13:41:28;;;;;;;9.87;2.70;;;;;;;;;;5057608;28;20525;-68
2022/01/30 13:43:58;;;;;;;7.77;2.70;;;;;;;;;;5075578;28;20454;-68
2022/01/30 13:49:14;;;;;;;9.07;2.83;;;;;;;;;;5075499;28;20413;-69
2022/01/30 13:51:40;;;;;;;9.53;2.93;;;;;;;;;;5075397;28;20398;-69
2022/01/30 13:54:10;;;;;;;5.43;2.20;;;;;;;;;;5075315;28;20452;-70
2022/01/30 13:56:37;;;;;;;9.53;2.40;;;;;;;;;;5075374;28;20412;-68
2022/01/30 13:59:03;;;;;;;6.23;2.97;;;;;;;;;;5057399;28;20417;-69
2022/01/30 14:01:33;;;;;;;6.60;2.43;;;;;;;;;;5074896;28;20849;-67
2022/01/30 14:04:09;;;;;;;9.33;3.30;;;;;;;;;;5075306;28;20489;-67
2022/01/30 14:06:35;;;;;;;4.43;2.23;;;;;;;;;;5057209;28;20477;-68
2022/01/30 14:09:03;;;;;;;8.00;2.33;;;;;;;;;;5075084;28;20759;-67
2022/01/30 14:11:31;;;;;;;8.30;2.30;;;;;;;;;;5075019;28;20399;-67
2022/01/30 14:14:08;;;;;;;9.00;3.10;;;;;;;;;;5074986;28;20448;-68
2022/01/30 14:16:38;;;;;;;6.80;3.03;;;;;;;;;;5075005;28;20404;-69
2022/01/30 14:19:05;;;;;;;8.27;2.60;;;;;;;;;;5074628;28;20397;-67
2022/01/30 14:21:32;;;;;;;6.73;2.67;;;;;;;;;;5056744;28;20478;-67
2022/01/30 14:23:59;;;;;;;4.53;2.33;;;;;;;;;;5074674;28;20413;-68
2022/01/30 14:26:26;;;;;;;9.53;2.87;;;;;;;;;;5074686;28;20397;-68
2022/01/30 14:29:12;;;;;;;8.13;2.30;;;;;;;;;;5074806;28;20398;-70
2022/01/30 14:31:53;;;;;;;6.87;2.67;;;;;;;;;;5074730;28;20435;-67
2022/01/30 14:34:20;;;;;;;6.73;2.83;;;;;;;;;;5074599;28;20393;-67
2022/01/30 14:36:46;;;;;;;7.07;2.30;;;;;;;;;;5074483;28;20469;-67
2022/01/30 14:39:12;;;;;;;14.13;2.77;;;;;;;;;;5074466;28;20434;-67
2022/01/30 14:41:39;;;;;;;7.70;2.70;;;;;;;;;;5056537;28;20565;-69
2022/01/30 14:44:05;;;;;;;12.37;2.43;;;;;;;;;;5056531;28;20817;-68
2022/01/30 14:46:31;;;;;;;8.83;2.20;;;;;;;;;;5074346;28;20405;-68
2022/01/30 14:48:57;;;;;;;5.77;2.67;;;;;;;;;;5056295;28;20467;-69
2022/01/30 14:51:23;;;;;;;6.77;2.43;;;;;;;;;;5074157;28;20509;-67
2022/01/30 14:53:49;;;;;;;8.23;2.07;;;;;;;;;;5074026;28;20421;-67
2022/01/30 14:56:15;;;;;;;6.90;2.57;;;;;;;;;;5074003;28;20429;-67
2022/01/30 14:58:42;;;;;;;6.20;2.00;;;;;;;;;;5073942;28;20889;-69
2022/01/30 15:01:08;;;;;;;6.63;2.40;;;;;;;;;;5073799;28;20800;-68
2022/01/30 15:03:34;;;;;;;6.50;2.37;;;;;;;;;;5073917;28;20520;-67
2022/01/30 15:06:03;;;;;;;10.07;3.03;;;;;;;;;;5073903;28;20406;-67
2022/01/30 15:08:30;;;;;;;5.67;2.70;;;;;;;;;;5073877;28;20728;-68
2022/01/30 15:10:56;;;;;;;9.10;2.83;;;;;;;;;;5073853;28;20407;-67
2022/01/30 15:13:23;;;;;;;5.93;2.40;;;;;;;;;;5073652;28;20393;-67
2022/01/30 15:15:51;;;;;;;12.90;2.53;;;;;;;;;;5055862;28;20507;-69
2022/01/30 15:18:22;;;;;;;5.10;2.33;;;;;;;;;;5073726;28;20460;-71
2022/01/30 15:20:48;;;;;;;5.20;2.30;;;;;;;;;;5073599;28;20563;-68
2022/01/30 15:23:15;;;;;;;5.27;2.47;;;;;;;;;;5073627;28;20394;-67
2022/01/30 15:25:41;;;;;;;7.27;3.70;;;;;;;;;;5073387;28;20814;-71
2022/01/30 15:28:07;;;;;;;6.77;2.80;;;;;;;;;;5055620;28;20428;-67
2022/01/30 15:30:33;;;;;;;8.80;2.90;;;;;;;;;;5072795;28;20771;-68
2022/01/30 15:32:59;;;;;;;13.37;3.20;;;;;;;;;;5073282;28;20410;-71